Time;durP1;ratioP1;P1;durP2;ratioP2;P2;SDS_P1;SDS_P2;PMS_P1;PMS_P2;Temp;Humidity;BMP_temperature;BMP_pressure;BME280_temperature;BME280_humidity;BME280_pressure;Samples;Min_cycle;Max_cycle;Signal;HPM_P1;HPM_P2
2021/08/04 00:01:40;;;;;;;154.65;121.82;;;;;;;;;;4144582;34;20080;-84
2021/08/04 00:04:10;;;;;;;144.82;124.20;;;;;;;;;;4136715;34;20099;-85
2021/08/04 00:06:39;;;;;;;145.35;124.40;;;;;;;;;;4149294;34;20053;-84
2021/08/04 00:09:07;;;;;;;141.15;121.72;;;;;;;;;;4149742;34;20354;-84
2021/08/04 00:11:36;;;;;;;141.68;119.93;;;;;;;;;;4156441;34;20125;-84
2021/08/04 00:14:05;;;;;;;150.02;124.20;;;;;;;;;;4147088;34;20084;-84
2021/08/04 00:16:33;;;;;;;166.75;133.02;;;;;;;;;;4151518;34;20056;-84
2021/08/04 00:19:02;;;;;;;173.45;134.68;;;;;;;;;;4144178;34;20075;-84
2021/08/04 00:21:31;;;;;;;170.77;134.70;;;;;;;;;;4149537;34;20551;-84
2021/08/04 00:24:00;;;;;;;131.07;119.65;;;;;;;;;;4146956;34;20452;-84
2021/08/04 00:26:28;;;;;;;128.50;116.37;;;;;;;;;;4150768;34;20078;-84
2021/08/04 00:28:57;;;;;;;127.10;115.60;;;;;;;;;;4148490;34;20053;-84
2021/08/04 00:31:25;;;;;;;125.45;113.05;;;;;;;;;;4149922;34;20064;-84
2021/08/04 00:33:54;;;;;;;124.97;113.18;;;;;;;;;;4149194;34;20040;-83
2021/08/04 00:36:22;;;;;;;124.22;112.82;;;;;;;;;;4148084;34;21838;-84
2021/08/04 00:38:51;;;;;;;168.23;128.82;;;;;;;;;;4149958;34;20076;-84
2021/08/04 00:41:19;;;;;;;140.25;112.62;;;;;;;;;;4150615;34;20396;-84
2021/08/04 00:43:48;;;;;;;143.70;107.90;;;;;;;;;;4150235;34;20068;-84
2021/08/04 00:46:16;;;;;;;142.00;107.07;;;;;;;;;;4149331;34;20115;-84
2021/08/04 00:48:54;;;;;;;138.20;105.00;;;;;;;;;;4146929;34;20083;-83
2021/08/04 00:51:23;;;;;;;138.80;105.45;;;;;;;;;;4151014;34;20045;-84
2021/08/04 00:53:52;;;;;;;138.12;104.55;;;;;;;;;;4147736;34;20103;-84
2021/08/04 00:56:20;;;;;;;141.12;105.10;;;;;;;;;;4150087;34;20093;-84
2021/08/04 00:58:50;;;;;;;138.25;99.90;;;;;;;;;;4147950;34;20049;-85
2021/08/04 01:01:18;;;;;;;113.05;101.35;;;;;;;;;;4149594;34;20048;-84
2021/08/04 01:03:56;;;;;;;118.70;106.87;;;;;;;;;;4147179;34;20926;-84
2021/08/04 01:06:43;;;;;;;115.57;103.50;;;;;;;;;;4148810;34;20488;-84
2021/08/04 01:09:12;;;;;;;105.20;94.70;;;;;;;;;;4147836;34;20131;-83
2021/08/04 01:11:46;;;;;;;106.22;95.45;;;;;;;;;;4148324;34;20080;-84
2021/08/04 01:14:16;;;;;;;143.00;109.87;;;;;;;;;;4148661;34;20044;-84
2021/08/04 01:16:48;;;;;;;153.52;113.43;;;;;;;;;;4151645;34;21685;-84
2021/08/04 01:19:28;;;;;;;155.30;114.45;;;;;;;;;;4150603;34;20446;-84
2021/08/04 01:22:01;;;;;;;158.27;116.03;;;;;;;;;;4145862;34;20166;-84
2021/08/04 01:24:33;;;;;;;151.18;114.22;;;;;;;;;;4147695;34;20052;-85
2021/08/04 01:27:02;;;;;;;147.70;114.40;;;;;;;;;;4145917;34;20079;-84
2021/08/04 01:29:32;;;;;;;143.98;112.05;;;;;;;;;;4147771;34;20044;-85
2021/08/04 01:32:02;;;;;;;145.30;112.20;;;;;;;;;;4149715;34;20048;-84
2021/08/04 01:34:32;;;;;;;149.27;115.15;;;;;;;;;;4149138;34;20068;-84
2021/08/04 01:37:01;;;;;;;145.40;117.45;;;;;;;;;;4146849;34;20100;-83
2021/08/04 01:39:30;;;;;;;118.47;107.18;;;;;;;;;;4145414;34;20099;-84
2021/08/04 01:41:59;;;;;;;120.62;109.32;;;;;;;;;;4151445;34;20706;-84
2021/08/04 01:44:29;;;;;;;117.53;106.57;;;;;;;;;;4150561;34;20087;-84
2021/08/04 01:46:59;;;;;;;124.50;112.05;;;;;;;;;;4144742;34;20444;-84
2021/08/04 01:49:28;;;;;;;140.27;126.75;;;;;;;;;;4147357;34;20163;-84
2021/08/04 01:51:57;;;;;;;144.02;115.25;;;;;;;;;;4132263;34;21444;-83
2021/08/04 01:54:27;;;;;;;157.20;118.10;;;;;;;;;;4146924;34;20048;-83
2021/08/04 01:56:55;;;;;;;151.32;120.90;;;;;;;;;;4146826;34;20641;-83
2021/08/04 01:59:24;;;;;;;165.55;126.12;;;;;;;;;;4146322;34;20044;-84
2021/08/04 02:01:54;;;;;;;171.65;129.63;;;;;;;;;;4143679;34;20103;-84
2021/08/04 02:04:23;;;;;;;174.48;129.30;;;;;;;;;;4147004;34;20118;-84
2021/08/04 02:06:59;;;;;;;175.12;137.45;;;;;;;;;;4145569;34;20355;-84
2021/08/04 02:09:28;;;;;;;179.10;139.62;;;;;;;;;;4150971;34;20117;-84
2021/08/04 02:12:02;;;;;;;190.45;144.70;;;;;;;;;;4148180;34;20786;-84
2021/08/04 02:14:36;;;;;;;190.38;141.45;;;;;;;;;;4144830;34;20111;-84
2021/08/04 02:17:13;;;;;;;147.87;133.60;;;;;;;;;;4150222;34;20087;-84
2021/08/04 02:19:44;;;;;;;147.20;132.90;;;;;;;;;;4149136;34;20074;-84
2021/08/04 02:22:20;;;;;;;151.30;137.07;;;;;;;;;;4144228;34;20679;-84
2021/08/04 02:24:54;;;;;;;154.05;140.05;;;;;;;;;;4143146;34;20094;-85
2021/08/04 02:27:22;;;;;;;154.10;139.88;;;;;;;;;;4149553;34;20392;-84
2021/08/04 02:29:51;;;;;;;145.45;131.68;;;;;;;;;;4147457;34;20052;-84
2021/08/04 02:32:20;;;;;;;192.55;142.68;;;;;;;;;;4149719;34;20103;-85
2021/08/04 02:34:49;;;;;;;171.48;130.52;;;;;;;;;;4148308;34;20684;-84
2021/08/04 02:37:18;;;;;;;174.77;129.70;;;;;;;;;;4150686;34;20084;-84
2021/08/04 02:39:46;;;;;;;172.05;130.12;;;;;;;;;;4150500;34;20045;-84
2021/08/04 02:42:15;;;;;;;165.50;128.07;;;;;;;;;;4147368;34;20453;-84
2021/08/04 02:44:44;;;;;;;190.75;136.80;;;;;;;;;;4148788;34;20339;-84
2021/08/04 02:47:13;;;;;;;183.55;130.45;;;;;;;;;;4147310;34;20099;-84
2021/08/04 02:49:41;;;;;;;184.82;132.75;;;;;;;;;;4151997;34;20061;-84
2021/08/04 02:52:11;;;;;;;188.87;135.68;;;;;;;;;;4152763;34;20071;-83
2021/08/04 02:54:39;;;;;;;178.38;129.87;;;;;;;;;;4146643;34;20616;-85
2021/08/04 02:57:08;;;;;;;142.85;127.43;;;;;;;;;;4151918;34;20119;-84
2021/08/04 02:59:36;;;;;;;144.70;128.75;;;;;;;;;;4150002;34;20194;-83
2021/08/04 03:02:05;;;;;;;135.12;121.62;;;;;;;;;;4153723;34;20075;-84
2021/08/04 03:04:34;;;;;;;132.10;118.78;;;;;;;;;;4146270;34;20095;-84
2021/08/04 03:07:03;;;;;;;134.90;120.60;;;;;;;;;;4150121;34;20056;-84
2021/08/04 03:09:31;;;;;;;170.93;123.05;;;;;;;;;;4152046;34;20811;-84
2021/08/04 07:50:40;;;;;;;192.77;138.62;;;;;;;;;;4259200;28;20131;-83
2021/08/04 07:53:09;;;;;;;190.18;140.00;;;;;;;;;;4129655;34;20157;-82
2021/08/04 07:55:40;;;;;;;158.52;100.85;;;;;;;;;;4118020;34;20060;-84
2021/08/04 07:58:08;;;;;;;153.35;100.60;;;;;;;;;;4129868;34;20315;-83
2021/08/04 08:00:37;;;;;;;157.90;101.00;;;;;;;;;;4133635;34;20131;-84
2021/08/04 08:03:06;;;;;;;170.77;110.32;;;;;;;;;;4144471;34;20110;-84
2021/08/04 08:05:35;;;;;;;150.45;114.18;;;;;;;;;;4146444;34;20731;-84
2021/08/04 08:08:05;;;;;;;119.60;107.97;;;;;;;;;;4147118;34;20143;-85
2021/08/04 08:10:39;;;;;;;162.48;124.25;;;;;;;;;;4157058;34;20099;-84
2021/08/04 08:13:08;;;;;;;167.20;123.50;;;;;;;;;;4138905;34;20468;-85
2021/08/04 08:15:36;;;;;;;106.45;96.40;;;;;;;;;;4153065;34;20084;-85
2021/08/04 08:18:11;;;;;;;105.10;95.75;;;;;;;;;;4138503;34;20084;-84
2021/08/04 08:20:41;;;;;;;163.43;113.53;;;;;;;;;;4151561;34;20168;-84
2021/08/04 08:23:09;;;;;;;125.97;102.40;;;;;;;;;;4146469;34;20092;-85
2021/08/04 08:25:39;;;;;;;38.53;34.65;;;;;;;;;;4147760;34;21207;-85
2021/08/04 08:28:08;;;;;;;10.98;2.80;;;;;;;;;;4146868;34;20458;-85
2021/08/04 08:30:37;;;;;;;7.72;2.20;;;;;;;;;;4149704;34;20513;-85
2021/08/04 08:33:05;;;;;;;11.02;2.55;;;;;;;;;;4149720;34;20114;-85
2021/08/04 08:35:34;;;;;;;7.43;2.33;;;;;;;;;;4151318;34;20090;-85
2021/08/04 08:38:02;;;;;;;8.70;2.67;;;;;;;;;;4145890;34;20073;-86
2021/08/04 08:40:31;;;;;;;8.05;2.40;;;;;;;;;;4127264;34;20083;-85
2021/08/04 08:43:00;;;;;;;8.90;2.75;;;;;;;;;;4147356;34;20494;-85
2021/08/04 08:45:29;;;;;;;7.12;2.30;;;;;;;;;;4150910;34;20067;-85
2021/08/04 08:47:58;;;;;;;9.18;2.30;;;;;;;;;;4147630;34;20478;-85
2021/08/04 08:50:27;;;;;;;8.95;2.50;;;;;;;;;;4146417;34;20061;-85
2021/08/04 08:52:56;;;;;;;14.10;3.80;;;;;;;;;;4138936;34;20163;-84
2021/08/04 08:55:25;;;;;;;11.30;3.83;;;;;;;;;;4143290;34;20053;-83
2021/08/04 08:57:54;;;;;;;10.70;2.90;;;;;;;;;;4144254;34;20134;-84
2021/08/04 09:00:23;;;;;;;13.62;2.65;;;;;;;;;;4150834;34;20620;-85
2021/08/04 09:02:51;;;;;;;12.70;2.78;;;;;;;;;;4147914;34;20079;-85
2021/08/04 09:05:21;;;;;;;13.93;3.28;;;;;;;;;;4154418;34;20105;-85
2021/08/04 09:07:49;;;;;;;10.90;3.33;;;;;;;;;;4151214;34;20429;-85
2021/08/04 09:10:21;;;;;;;10.40;2.55;;;;;;;;;;4153104;34;20483;-85
2021/08/04 09:12:51;;;;;;;10.70;3.35;;;;;;;;;;4149521;34;20095;-84
2021/08/04 09:15:39;;;;;;;6.35;2.20;;;;;;;;;;4152837;34;20087;-84
2021/08/04 09:18:10;;;;;;;11.40;2.78;;;;;;;;;;4150537;34;20113;-84
2021/08/04 09:20:41;;;;;;;11.85;3.35;;;;;;;;;;4154591;34;20480;-84
2021/08/04 09:23:14;;;;;;;7.97;2.60;;;;;;;;;;4152761;34;20075;-86
2021/08/04 09:26:00;;;;;;;11.63;3.10;;;;;;;;;;4151099;34;20460;-85
2021/08/04 09:28:29;;;;;;;6.75;2.50;;;;;;;;;;4149966;34;20080;-86
2021/08/04 09:31:02;;;;;;;6.03;2.08;;;;;;;;;;4154038;34;20090;-86
2021/08/04 09:33:38;;;;;;;4.72;2.15;;;;;;;;;;4148534;34;20040;-86
2021/08/04 09:36:07;;;;;;;7.30;2.50;;;;;;;;;;4155235;34;20102;-86
2021/08/04 09:38:36;;;;;;;9.57;2.37;;;;;;;;;;4146141;34;20128;-86
2021/08/04 09:41:18;;;;;;;8.02;2.65;;;;;;;;;;4150858;34;20061;-86
2021/08/04 09:43:51;;;;;;;10.30;2.87;;;;;;;;;;4153804;34;20458;-86
2021/08/04 09:46:25;;;;;;;9.13;2.80;;;;;;;;;;4149555;34;20126;-85
2021/08/04 09:49:09;;;;;;;9.57;2.50;;;;;;;;;;4144549;34;20048;-85
2021/08/04 09:51:37;;;;;;;7.55;2.28;;;;;;;;;;4149626;34;20159;-85
2021/08/04 09:54:08;;;;;;;9.82;2.45;;;;;;;;;;4150311;34;20052;-85
2021/08/04 09:56:52;;;;;;;8.60;2.95;;;;;;;;;;4153042;34;20119;-85
2021/08/04 09:59:21;;;;;;;6.97;2.80;;;;;;;;;;4151010;34;20131;-85
2021/08/04 10:01:50;;;;;;;8.40;2.83;;;;;;;;;;4153656;34;20080;-86
2021/08/04 10:04:19;;;;;;;10.05;2.60;;;;;;;;;;4148466;34;20111;-85
2021/08/04 10:06:48;;;;;;;8.95;2.58;;;;;;;;;;4151490;34;20052;-85
2021/08/04 10:09:17;;;;;;;9.00;2.75;;;;;;;;;;4143182;34;20068;-85
2021/08/04 10:11:47;;;;;;;5.82;2.65;;;;;;;;;;4145180;34;20044;-85
2021/08/04 10:14:17;;;;;;;7.62;2.30;;;;;;;;;;4153777;34;20048;-85
2021/08/04 10:16:47;;;;;;;10.30;2.65;;;;;;;;;;4143999;34;20143;-85
2021/08/04 10:19:16;;;;;;;8.02;2.60;;;;;;;;;;4143502;34;20103;-85
2021/08/04 10:21:47;;;;;;;8.02;2.62;;;;;;;;;;4149346;34;20048;-85
2021/08/04 10:24:16;;;;;;;7.70;2.80;;;;;;;;;;4151937;34;20052;-85
2021/08/04 10:26:44;;;;;;;7.87;2.95;;;;;;;;;;4153986;34;20037;-85
2021/08/04 10:29:13;;;;;;;8.43;3.00;;;;;;;;;;4148686;34;20079;-86
2021/08/04 10:31:42;;;;;;;8.38;2.80;;;;;;;;;;4154068;34;20117;-85
2021/08/04 10:34:26;;;;;;;8.27;2.70;;;;;;;;;;4149500;34;20460;-85
2021/08/04 10:36:59;;;;;;;6.25;2.40;;;;;;;;;;4152825;34;20028;-85
2021/08/04 10:39:28;;;;;;;7.95;2.53;;;;;;;;;;4150555;34;20052;-85
2021/08/04 10:42:01;;;;;;;9.15;2.65;;;;;;;;;;4152726;34;20096;-85
2021/08/04 10:44:30;;;;;;;8.77;2.97;;;;;;;;;;4150613;34;20151;-85
2021/08/04 10:47:01;;;;;;;6.90;2.50;;;;;;;;;;4148409;34;20075;-85
2021/08/04 10:49:31;;;;;;;9.38;3.33;;;;;;;;;;4149979;34;20500;-85
2021/08/04 10:52:00;;;;;;;7.80;2.78;;;;;;;;;;4156283;34;20078;-85
2021/08/04 10:54:30;;;;;;;9.35;2.50;;;;;;;;;;4152465;34;20380;-85
2021/08/04 10:56:58;;;;;;;9.77;3.05;;;;;;;;;;4147509;34;20115;-85
2021/08/04 10:59:27;;;;;;;6.95;3.03;;;;;;;;;;4151157;34;20049;-85
2021/08/04 11:02:17;;;;;;;10.38;2.90;;;;;;;;;;4156611;34;20425;-85
2021/08/04 11:04:50;;;;;;;6.60;2.50;;;;;;;;;;4155116;34;20052;-85
2021/08/04 11:07:22;;;;;;;4.75;2.22;;;;;;;;;;4154755;34;20048;-85
2021/08/04 11:09:54;;;;;;;7.87;3.05;;;;;;;;;;4154164;34;20086;-85
2021/08/04 11:12:40;;;;;;;6.07;2.40;;;;;;;;;;4143101;34;20123;-85
2021/08/04 11:15:22;;;;;;;10.65;2.60;;;;;;;;;;4137409;34;20128;-85
2021/08/04 11:17:59;;;;;;;6.95;2.37;;;;;;;;;;4152883;34;20153;-86
2021/08/04 11:20:27;;;;;;;6.05;2.30;;;;;;;;;;4153086;34;20068;-85
2021/08/04 11:22:56;;;;;;;7.43;2.55;;;;;;;;;;4152193;34;20113;-85
2021/08/04 11:25:24;;;;;;;7.97;2.60;;;;;;;;;;4154649;34;20123;-85
2021/08/04 11:27:53;;;;;;;6.80;2.40;;;;;;;;;;4152434;34;20075;-85
2021/08/04 11:30:38;;;;;;;10.10;2.80;;;;;;;;;;4156818;34;20052;-85
2021/08/04 11:33:19;;;;;;;7.40;2.20;;;;;;;;;;4151967;34;20476;-85
2021/08/04 11:36:06;;;;;;;5.75;2.37;;;;;;;;;;4155329;34;20628;-86
2021/08/04 11:38:55;;;;;;;9.10;2.58;;;;;;;;;;4153535;34;20441;-84
2021/08/04 11:41:31;;;;;;;9.38;2.50;;;;;;;;;;4146230;34;20464;-86
2021/08/04 11:44:20;;;;;;;6.10;2.37;;;;;;;;;;4149902;34;20076;-85
2021/08/04 11:46:49;;;;;;;6.65;2.55;;;;;;;;;;4155882;34;20423;-85
2021/08/04 11:49:26;;;;;;;6.45;2.28;;;;;;;;;;4151955;34;20082;-86
2021/08/04 11:52:05;;;;;;;7.93;2.15;;;;;;;;;;4153965;34;20075;-85
2021/08/04 11:54:36;;;;;;;5.35;2.28;;;;;;;;;;4152046;34;20052;-85
2021/08/04 11:57:09;;;;;;;6.90;2.35;;;;;;;;;;4152137;34;20071;-85
2021/08/04 11:59:38;;;;;;;;;;;;;;;;;;4151983;34;20168;-85
2021/08/04 12:02:06;;;;;;;5.55;2.12;;;;;;;;;;4155022;34;19960;-85
2021/08/04 12:04:42;;;;;;;9.65;2.87;;;;;;;;;;4153065;34;20079;-85
2021/08/04 12:07:10;;;;;;;8.20;2.67;;;;;;;;;;4154906;34;20037;-85
2021/08/04 12:09:39;;;;;;;10.63;2.92;;;;;;;;;;4153502;34;20367;-85
2021/08/04 12:12:12;;;;;;;10.02;2.90;;;;;;;;;;4150992;34;20517;-85
2021/08/04 12:14:41;;;;;;;8.13;2.97;;;;;;;;;;4147261;34;20106;-85
2021/08/04 12:17:34;;;;;;;7.97;2.35;;;;;;;;;;4143038;34;20150;-85
2021/08/04 12:20:13;;;;;;;9.27;2.50;;;;;;;;;;4149388;34;20116;-85
2021/08/04 12:22:42;;;;;;;10.70;2.83;;;;;;;;;;4147071;34;20052;-85
2021/08/04 12:25:16;;;;;;;12.68;2.97;;;;;;;;;;4155602;34;20449;-85
2021/08/04 12:27:47;;;;;;;8.63;2.60;;;;;;;;;;4146630;34;20083;-85
2021/08/04 12:30:18;;;;;;;8.32;2.58;;;;;;;;;;4133562;34;20459;-85
2021/08/04 12:32:54;;;;;;;8.40;2.67;;;;;;;;;;4138895;34;20730;-85
2021/08/04 12:35:25;;;;;;;8.68;2.55;;;;;;;;;;4144049;34;20107;-85
2021/08/04 12:37:54;;;;;;;10.30;2.90;;;;;;;;;;4145355;34;20052;-84
2021/08/04 12:40:23;;;;;;;7.10;2.45;;;;;;;;;;4153654;34;20114;-85
2021/08/04 12:42:54;;;;;;;6.95;2.40;;;;;;;;;;4148451;34;20095;-84
2021/08/04 12:45:24;;;;;;;10.15;2.60;;;;;;;;;;4152877;34;20040;-85
2021/08/04 12:47:57;;;;;;;9.25;2.80;;;;;;;;;;4149391;34;20466;-84
2021/08/04 12:50:30;;;;;;;7.55;2.47;;;;;;;;;;4154305;34;20053;-85
2021/08/04 12:52:59;;;;;;;10.50;2.83;;;;;;;;;;4150750;34;20079;-85
2021/08/04 12:55:27;;;;;;;12.00;2.83;;;;;;;;;;4150604;34;20145;-85
2021/08/04 12:58:06;;;;;;;14.40;2.62;;;;;;;;;;4151556;34;22311;-84
2021/08/04 13:00:36;;;;;;;13.45;3.10;;;;;;;;;;4147523;34;20072;-85
2021/08/04 13:03:06;;;;;;;9.55;2.60;;;;;;;;;;4149162;34;20117;-84
2021/08/04 13:05:45;;;;;;;9.40;2.65;;;;;;;;;;4152536;34;20117;-85
2021/08/04 13:08:28;;;;;;;12.73;2.90;;;;;;;;;;4148418;34;20059;-85
2021/08/04 13:10:57;;;;;;;9.32;2.75;;;;;;;;;;4153096;34;20061;-85
2021/08/04 13:13:25;;;;;;;10.95;2.72;;;;;;;;;;4149646;34;20116;-85
2021/08/04 13:15:54;;;;;;;7.37;2.78;;;;;;;;;;4150796;34;20413;-85
2021/08/04 13:18:34;;;;;;;8.18;2.53;;;;;;;;;;4152909;34;20487;-85
2021/08/04 13:21:13;;;;;;;9.38;3.10;;;;;;;;;;4149420;34;20385;-84
2021/08/04 13:23:41;;;;;;;12.27;3.20;;;;;;;;;;4148643;34;20134;-85
2021/08/04 13:26:11;;;;;;;14.50;3.22;;;;;;;;;;4150268;34;20421;-85
2021/08/04 13:28:43;;;;;;;10.73;3.00;;;;;;;;;;4141693;34;20115;-85
2021/08/04 13:31:19;;;;;;;8.50;2.60;;;;;;;;;;4146471;34;20165;-84
2021/08/04 13:33:47;;;;;;;10.73;2.80;;;;;;;;;;4146795;34;20045;-85
2021/08/04 13:36:17;;;;;;;9.93;3.10;;;;;;;;;;4144489;34;20078;-85
2021/08/04 13:38:48;;;;;;;11.20;2.50;;;;;;;;;;4146912;34;20154;-85
2021/08/04 13:41:17;;;;;;;13.90;3.30;;;;;;;;;;4150911;34;20543;-85
2021/08/04 13:43:45;;;;;;;8.25;2.70;;;;;;;;;;4148534;34;20078;-84
2021/08/04 13:46:13;;;;;;;7.53;2.30;;;;;;;;;;4152094;34;20068;-85
2021/08/04 13:48:42;;;;;;;11.18;3.08;;;;;;;;;;4151113;34;20053;-85
2021/08/04 13:51:11;;;;;;;12.93;2.90;;;;;;;;;;4151014;34;20048;-84
2021/08/04 13:53:39;;;;;;;9.38;2.85;;;;;;;;;;4145937;34;20545;-85
2021/08/04 13:56:08;;;;;;;15.95;3.10;;;;;;;;;;4139908;34;20098;-85
2021/08/04 13:58:36;;;;;;;8.52;3.03;;;;;;;;;;4143713;34;20259;-85
2021/08/04 14:01:05;;;;;;;10.88;2.90;;;;;;;;;;4138955;34;20154;-85
2021/08/04 14:03:33;;;;;;;10.05;2.80;;;;;;;;;;4134985;34;20149;-84
2021/08/04 14:06:02;;;;;;;10.63;2.70;;;;;;;;;;4136518;34;20202;-86
2021/08/04 14:08:30;;;;;;;9.85;2.62;;;;;;;;;;4141633;34;20052;-85
2021/08/04 14:10:59;;;;;;;7.55;2.40;;;;;;;;;;4138339;34;20531;-85
2021/08/04 14:13:27;;;;;;;6.35;2.58;;;;;;;;;;4139879;34;20110;-85
2021/08/04 14:15:55;;;;;;;9.98;2.90;;;;;;;;;;4144860;34;20463;-84
2021/08/04 14:18:24;;;;;;;12.35;3.25;;;;;;;;;;4144591;34;20519;-85
2021/08/04 14:20:53;;;;;;;9.45;2.75;;;;;;;;;;4143360;34;20118;-84
2021/08/04 14:23:21;;;;;;;8.02;3.05;;;;;;;;;;4144110;34;20480;-85
2021/08/04 14:25:50;;;;;;;9.90;2.78;;;;;;;;;;4142875;34;20079;-85
2021/08/04 14:28:18;;;;;;;7.93;2.90;;;;;;;;;;4143787;34;20064;-85
2021/08/04 14:30:46;;;;;;;11.77;3.45;;;;;;;;;;4142443;34;20098;-85
2021/08/04 14:33:15;;;;;;;8.80;2.78;;;;;;;;;;4145170;34;20145;-85
2021/08/04 14:35:44;;;;;;;8.27;2.92;;;;;;;;;;4143154;34;20110;-85
2021/08/04 14:38:18;;;;;;;13.15;2.87;;;;;;;;;;4143444;34;20064;-85
2021/08/04 14:40:46;;;;;;;12.25;3.22;;;;;;;;;;4148639;34;20100;-85
2021/08/04 14:43:15;;;;;;;9.60;2.70;;;;;;;;;;4143186;34;20237;-85
2021/08/04 14:45:45;;;;;;;11.18;3.03;;;;;;;;;;4144392;34;20052;-84
2021/08/04 14:48:16;;;;;;;10.50;3.08;;;;;;;;;;4147347;34;20052;-85
2021/08/04 14:50:45;;;;;;;9.07;2.97;;;;;;;;;;4145349;34;20427;-85
2021/08/04 14:53:13;;;;;;;11.85;3.12;;;;;;;;;;4142508;34;20080;-85
2021/08/04 14:55:42;;;;;;;8.88;2.97;;;;;;;;;;4148149;34;20129;-85
2021/08/04 14:58:11;;;;;;;10.57;2.90;;;;;;;;;;4138927;34;20147;-85
2021/08/04 15:00:40;;;;;;;11.40;3.22;;;;;;;;;;4139744;34;20513;-85
2021/08/04 15:03:08;;;;;;;10.30;3.10;;;;;;;;;;4136987;34;20092;-85
2021/08/04 15:05:37;;;;;;;15.85;4.15;;;;;;;;;;4146533;34;20147;-85
2021/08/04 15:08:06;;;;;;;11.02;3.75;;;;;;;;;;4132644;34;20159;-85
2021/08/04 15:10:35;;;;;;;13.13;3.30;;;;;;;;;;4130649;34;20397;-85
2021/08/04 15:13:03;;;;;;;18.23;3.85;;;;;;;;;;4140204;34;20415;-85
2021/08/04 15:15:32;;;;;;;12.52;3.17;;;;;;;;;;4142387;34;20122;-85
2021/08/04 15:18:00;;;;;;;11.12;3.45;;;;;;;;;;4146968;34;20056;-84
2021/08/04 15:20:29;;;;;;;13.80;3.42;;;;;;;;;;4144346;34;20064;-85
2021/08/04 15:22:57;;;;;;;18.23;3.97;;;;;;;;;;4144846;34;20088;-85
2021/08/04 15:25:26;;;;;;;10.20;2.75;;;;;;;;;;4145079;34;20404;-85
2021/08/04 15:27:54;;;;;;;14.32;3.42;;;;;;;;;;4145102;34;20528;-85
2021/08/04 15:30:23;;;;;;;11.73;3.12;;;;;;;;;;4146533;34;20106;-85
2021/08/04 15:32:53;;;;;;;12.13;3.30;;;;;;;;;;4143436;34;20130;-85
2021/08/04 15:35:22;;;;;;;13.65;3.37;;;;;;;;;;4136129;34;21914;-85
2021/08/04 15:37:51;;;;;;;15.07;4.03;;;;;;;;;;4141262;34;20121;-84
2021/08/04 15:40:19;;;;;;;9.80;2.85;;;;;;;;;;4148408;34;20430;-85
2021/08/04 15:42:49;;;;;;;10.55;3.22;;;;;;;;;;4143117;34;20064;-86
2021/08/04 15:45:19;;;;;;;9.57;3.33;;;;;;;;;;4145315;34;20439;-85
2021/08/04 15:47:52;;;;;;;9.32;3.00;;;;;;;;;;4146440;34;20123;-85
2021/08/04 15:50:20;;;;;;;10.75;3.50;;;;;;;;;;4141833;34;20143;-85
2021/08/04 15:52:49;;;;;;;14.32;3.90;;;;;;;;;;4145163;34;20092;-85
2021/08/04 15:55:18;;;;;;;10.23;4.03;;;;;;;;;;4146703;34;20181;-85
2021/08/04 15:57:46;;;;;;;12.27;3.60;;;;;;;;;;4142383;34;20055;-85
2021/08/04 16:00:19;;;;;;;13.15;3.92;;;;;;;;;;4136817;34;20103;-85
2021/08/04 16:02:48;;;;;;;12.43;3.92;;;;;;;;;;4140380;34;20126;-84
2021/08/04 16:05:17;;;;;;;11.50;3.42;;;;;;;;;;4134181;34;20060;-85
2021/08/04 16:07:45;;;;;;;18.20;4.45;;;;;;;;;;4130527;34;20346;-84
2021/08/04 16:10:14;;;;;;;15.60;4.10;;;;;;;;;;4148602;34;20085;-84
2021/08/04 16:12:43;;;;;;;15.50;4.90;;;;;;;;;;4133323;34;20087;-84
2021/08/04 16:15:11;;;;;;;11.27;3.55;;;;;;;;;;4129610;34;20166;-85
2021/08/04 16:17:48;;;;;;;17.12;3.37;;;;;;;;;;4132967;34;20145;-84
2021/08/04 16:20:16;;;;;;;14.57;3.95;;;;;;;;;;4133773;34;20149;-84
2021/08/04 16:22:45;;;;;;;15.20;3.75;;;;;;;;;;4138518;34;20137;-84
2021/08/04 16:25:14;;;;;;;18.73;4.18;;;;;;;;;;4147824;34;20067;-85
2021/08/04 16:27:43;;;;;;;12.77;3.85;;;;;;;;;;4143250;34;20102;-85
2021/08/04 16:30:13;;;;;;;15.32;3.90;;;;;;;;;;4140912;34;20099;-84
2021/08/04 16:32:42;;;;;;;16.23;4.20;;;;;;;;;;4140978;34;20094;-84
2021/08/04 16:35:12;;;;;;;13.13;3.80;;;;;;;;;;4142969;34;20402;-83
2021/08/04 16:37:41;;;;;;;10.27;2.92;;;;;;;;;;4137950;34;20553;-85
2021/08/04 16:40:10;;;;;;;13.62;3.90;;;;;;;;;;4144188;34;20060;-84
2021/08/04 16:42:39;;;;;;;18.17;4.70;;;;;;;;;;4142187;34;20063;-84
2021/08/04 16:45:08;;;;;;;17.52;4.93;;;;;;;;;;4140578;34;20060;-84
2021/08/04 16:47:37;;;;;;;17.75;5.62;;;;;;;;;;4140208;34;20092;-84
2021/08/04 16:50:06;;;;;;;13.80;4.65;;;;;;;;;;4127541;34;21501;-84
2021/08/04 16:52:36;;;;;;;14.93;11.07;;;;;;;;;;4138405;34;20048;-85
2021/08/04 16:55:05;;;;;;;25.05;21.75;;;;;;;;;;4142100;34;20108;-84
2021/08/04 16:57:37;;;;;;;13.55;10.63;;;;;;;;;;4142162;34;20107;-84
2021/08/04 17:00:06;;;;;;;19.42;5.43;;;;;;;;;;4142902;34;20140;-84
2021/08/04 17:02:35;;;;;;;20.30;6.70;;;;;;;;;;4133389;34;20084;-85
2021/08/04 17:05:04;;;;;;;15.25;6.45;;;;;;;;;;4140577;34;20099;-84
2021/08/04 17:07:33;;;;;;;44.58;40.75;;;;;;;;;;4142172;34;20126;-85
2021/08/04 17:10:01;;;;;;;26.73;24.20;;;;;;;;;;4134446;34;20107;-84
2021/08/04 17:12:30;;;;;;;30.88;27.90;;;;;;;;;;4139487;34;20081;-84
2021/08/04 17:14:59;;;;;;;27.62;24.63;;;;;;;;;;4141086;34;20126;-84
2021/08/04 17:17:27;;;;;;;27.50;24.83;;;;;;;;;;4142689;34;20461;-84
2021/08/04 17:19:56;;;;;;;38.42;34.50;;;;;;;;;;4141646;34;20052;-84
2021/08/04 17:22:24;;;;;;;26.73;23.58;;;;;;;;;;4143477;34;20536;-84
2021/08/04 17:24:53;;;;;;;39.22;36.10;;;;;;;;;;4143285;34;20064;-84
2021/08/04 17:27:22;;;;;;;76.00;70.87;;;;;;;;;;4141652;34;20096;-84
2021/08/04 17:29:50;;;;;;;35.63;32.55;;;;;;;;;;4135306;34;20109;-84
2021/08/04 17:32:19;;;;;;;90.45;84.53;;;;;;;;;;4139753;34;20440;-86
2021/08/04 17:34:47;;;;;;;52.83;48.83;;;;;;;;;;4142650;34;20611;-84
2021/08/04 17:37:16;;;;;;;86.20;80.55;;;;;;;;;;4141712;34;20094;-84
2021/08/04 17:39:44;;;;;;;100.15;93.93;;;;;;;;;;4140592;34;20091;-85
2021/08/04 17:42:12;;;;;;;53.25;49.17;;;;;;;;;;4142999;34;20140;-84
2021/08/04 17:44:41;;;;;;;40.53;35.63;;;;;;;;;;4140887;34;20123;-85
2021/08/04 17:47:10;;;;;;;43.45;36.90;;;;;;;;;;4144051;34;20091;-84
2021/08/04 17:49:39;;;;;;;49.55;44.47;;;;;;;;;;4141501;34;20075;-85
2021/08/04 17:52:08;;;;;;;43.75;38.78;;;;;;;;;;4143587;34;20534;-84
2021/08/04 17:54:36;;;;;;;39.42;32.63;;;;;;;;;;4143793;34;20152;-84
2021/08/04 17:57:04;;;;;;;68.03;53.87;;;;;;;;;;4142743;34;20151;-84
2021/08/04 17:59:35;;;;;;;69.22;51.28;;;;;;;;;;4138882;34;20154;-84
2021/08/04 18:02:03;;;;;;;50.20;34.38;;;;;;;;;;4136966;34;20099;-84
2021/08/04 18:04:32;;;;;;;44.38;37.10;;;;;;;;;;4132357;34;20069;-84
2021/08/04 18:07:01;;;;;;;95.32;85.53;;;;;;;;;;4141558;34;20103;-84
2021/08/04 18:09:29;;;;;;;68.25;49.80;;;;;;;;;;4138281;34;20083;-85
2021/08/04 18:11:59;;;;;;;67.72;56.37;;;;;;;;;;4137188;34;20158;-84
2021/08/04 18:14:28;;;;;;;73.30;55.17;;;;;;;;;;4139408;34;20112;-84
2021/08/04 18:16:57;;;;;;;70.22;61.92;;;;;;;;;;4145657;34;20112;-84
2021/08/04 18:19:26;;;;;;;55.30;48.92;;;;;;;;;;4150215;34;20068;-85
2021/08/04 18:21:55;;;;;;;44.22;39.58;;;;;;;;;;4140069;34;20171;-84
2021/08/04 18:24:23;;;;;;;56.50;42.17;;;;;;;;;;4142620;34;20150;-85
2021/08/04 18:26:52;;;;;;;56.85;50.42;;;;;;;;;;4138224;34;20343;-84
2021/08/04 18:29:20;;;;;;;50.72;44.70;;;;;;;;;;4142286;34;20091;-85
2021/08/04 18:31:49;;;;;;;79.32;66.87;;;;;;;;;;4141788;34;20052;-84
2021/08/04 18:34:18;;;;;;;89.18;73.68;;;;;;;;;;4133802;34;20049;-84
2021/08/04 18:36:47;;;;;;;120.00;87.68;;;;;;;;;;4141170;34;20044;-84
2021/08/04 18:39:17;;;;;;;127.57;90.35;;;;;;;;;;4145224;34;20522;-84
2021/08/04 18:41:46;;;;;;;132.30;86.97;;;;;;;;;;4142025;34;20051;-84
2021/08/04 18:44:18;;;;;;;154.10;90.38;;;;;;;;;;4145121;34;20080;-84
2021/08/04 18:46:47;;;;;;;171.85;96.43;;;;;;;;;;4133771;34;20792;-84
2021/08/04 18:49:15;;;;;;;180.87;102.05;;;;;;;;;;4145147;34;20113;-84
2021/08/04 18:51:44;;;;;;;178.35;98.32;;;;;;;;;;4145462;34;20100;-85
2021/08/04 18:54:12;;;;;;;178.10;95.35;;;;;;;;;;4141928;34;20065;-83
2021/08/04 18:56:41;;;;;;;111.40;90.25;;;;;;;;;;4144633;34;20048;-84
2021/08/04 18:59:09;;;;;;;116.35;90.57;;;;;;;;;;4146055;34;20183;-84
2021/08/04 19:01:38;;;;;;;121.30;86.15;;;;;;;;;;4142439;34;20585;-84
2021/08/04 19:04:06;;;;;;;135.65;92.50;;;;;;;;;;4140721;34;20056;-84
2021/08/04 19:06:35;;;;;;;136.10;90.95;;;;;;;;;;4142485;34;20104;-84
2021/08/04 19:09:03;;;;;;;206.02;113.82;;;;;;;;;;4141389;34;20148;-84
2021/08/04 19:11:32;;;;;;;192.32;94.80;;;;;;;;;;4144700;34;20094;-84
2021/08/04 19:14:00;;;;;;;182.50;94.95;;;;;;;;;;4144773;34;20406;-84
2021/08/04 19:16:29;;;;;;;195.27;95.35;;;;;;;;;;4142019;34;20409;-84
2021/08/04 19:18:57;;;;;;;185.88;95.87;;;;;;;;;;4145704;34;20119;-84